Pagrindinis puslapis
METAR-TAF:

METAR-TAF

Oro uostai :

Kučingas, Malaizija

platuma: 01-29N, ilguma: 110-20E, Aukštis: 27 m

Dabartinis oras

Ataskaita buvo paskelbta 33 minutes, ne 01:00 UTC
Vėjas 5 kt iš Vakarų, svyruoja nuo Pietų/Pietvakarių ir Šiaurės Vakarų
Temperatūra 26°C
Drėgmė 84%
Slėgis 1009 hPa
Matomumas 10 km arba daugiau
Mažai debesys ne aukštis 1200 ft

METAR: WBGG 260100Z 26005KT 210V320 9999 FEW012 26/23 Q1009 NOSIG

Laikas: 09:33 (01:33 UTC)

Prognozė

Ataskaita buvo paskelbta 2 valandos ir 33 minutes, ne 23:00 UTC
Prognozė galioja nuo 26 metu 00 UTC su 27 metu 00 UTC
Vėjas 5 kt iš Šiaurės/Šiaurės Vakarų
Matomumas 10 km arba daugiau
Mažai debesys ne aukštis 2000 ft

TAF: WBGG 252300Z 2600/2700 34005KT 9999 FEW020

Orai ataskaitas ir orų prognozės (METAR, TAF).

turimą stotys yra geltonos ir raudonos taškus žemėlapyje.

Perkelti pele per norėdami pamatyti stoties vardą.

Tada spustelėkite, norėdami matyti oro stebėjimo ir prognozės.

Norėdami pakeisti žemėlapį: spustelėkite ant žalios mygtukų su juodo kryžiaus žemyn,; žalią mygtuką su brūkšneliu, jei norite nutolinti; arba žalių rodyklių gretimoms žemėlapius.


METAR-TAF: